Fort Stockton, TX

12:39 AM CST on February 28, 2015 (GMT -0600)
Fort Stockton-Pecos County | Change Station
CLOSE
Current Station
Airport
Location: Fort Stockton,
Elevation: 3009 ft
Nearby Weather Stations
Active Advisory: Winter Weather Advisory Active Notice: Record Report

Elev 3009 ft 30.91 °N, 102.92 °W | Updated 6 minutes ago

Overcast
Overcast
24 °F
Feels Like 13 °F
N
12
Wind Variable Wind from East

Today
High -- | Low -- °F
--% Chance of Precip.
Yesterday
High -- | Low -- °F
Precip. -- in
7:19 AM 6:49 PM
Waxing Gibbous, 75% visible
Pressure 30.16 in
Visibility 3.0 miles
Clouds Overcast 400 ft
Windchill 13 °F
Dew Point 24 °F
Humidity 100%
Rainfall 0.00 in
Snow Depth Not available.
UV 0 out of 12
Pollen 3.20 out of 12
Air Quality Not available.
Flu Activity Not available.
SPECI KFST 280633Z AUTO 09010KT 3SM BR OVC004 M04/M04 A3016 RMK AO2 I1001 T10441044

More Conditions Fewer Conditions

Pressure 30.16 in
Visibility 3.0 miles
Clouds Overcast 400 ft
Windchill 13 °F
Dew Point 24 °F
Humidity 100%
Rainfall 0.00 in
Snow Depth Not available.
UV 0 out of 12
Pollen 3.20 out of 12
Air Quality Not available.
Flu Activity Not available.
SPECI KFST 280633Z AUTO 09010KT 3SM BR OVC004 M04/M04 A3016 RMK AO2 I1001 T10441044

More Conditions Fewer Conditions

10-Day Weather Forecast

Almanac

Astronomy

Feb. 28, 2015 Rise Set
Actual Time
Civil Twilight
Nautical Twilight
Astronomical Twilight
Moon
Length of Visible Light
Length of Day
Tomorrow will be .
, % of the Moon is Illuminated

Today's Extremes

State Highs State Lows

Community

WunderPhotos

Upload Photos

1,800,974 photos uploaded!

WunderBlogs® & News

Nearby

Air Quality

  Air Quality AQ Index Pollutant
Not available.

Snow Depth

Station Depth Elevation

Earthquake Activity

City Distance Mag. Time & Date
Minimum magnitude displayed is 2.5.

Coastal Water Temperatures

Place Temperature

Nearby Weather Stations

Winter Weather Advisory
Statement as of 2:11 PM MST on February 27, 2015

... Winter Weather Advisory in effect from 9 PM CST /8 PM MST/
this evening to noon CST /11 am MST/ Saturday...

The National Weather Service in Midland/Odessa has issued a
Winter Weather Advisory for freezing drizzle which is in effect
from 9 PM CST /8 PM MST/ this evening to noon CST /11 am MST/
Saturday.

* Event... freezing drizzle and light snow.

* Timing... from 9 PM CST/8 PM MST this evening until noon CST/11
am MST Saturday.

* Impacts... accumulating snow and ice may result in slick and
hazardous roadways... particularly bridges and overpasses.
Reductions in visibility due to freezing fog is also expected.

* Ice accumulations... less than a tenth of an inch.

Precautionary/preparedness actions...

A Winter Weather Advisory means that periods of light snow and
freezing drizzle will cause travel difficulties. Be prepared for
slippery roads and limited visibilities... and use caution while
driving.